createdAt,value
2018-12-25T00:00:00.791Z,1018.40
2018-12-25T00:01:00.798Z,1018.39
2018-12-25T00:02:00.830Z,1018.39
2018-12-25T00:03:00.838Z,1018.37
2018-12-25T00:04:00.850Z,1018.36
2018-12-25T00:05:00.901Z,1018.28
2018-12-25T00:06:00.901Z,1018.28
2018-12-25T00:07:00.895Z,1018.30
2018-12-25T00:08:00.918Z,1018.27
2018-12-25T00:09:00.922Z,1018.26
2018-12-25T00:10:00.973Z,1018.25
2018-12-25T00:11:00.960Z,1018.25
2018-12-25T00:12:00.970Z,1018.29
2018-12-25T00:13:00.988Z,1018.30
2018-12-25T00:14:01.002Z,1018.26
2018-12-25T00:15:01.026Z,1018.23
2018-12-25T00:16:01.045Z,1018.21
2018-12-25T00:17:01.058Z,1018.21
2018-12-25T00:18:01.069Z,1018.23
2018-12-25T00:19:06.094Z,1018.21
2018-12-25T00:20:01.098Z,1018.23
2018-12-25T00:21:01.122Z,1018.31
2018-12-25T00:22:01.166Z,1018.32
2018-12-25T00:23:01.146Z,1018.34
2018-12-25T00:24:01.164Z,1018.36
2018-12-25T00:25:01.185Z,1018.35
2018-12-25T00:26:01.189Z,1018.34
2018-12-25T00:27:01.215Z,1018.33
2018-12-25T00:28:01.227Z,1018.29
2018-12-25T00:29:01.237Z,1018.31
2018-12-25T00:30:01.254Z,1018.34
2018-12-25T00:31:01.275Z,1018.30
2018-12-25T00:32:01.307Z,1018.31
2018-12-25T00:33:01.299Z,1018.30
2018-12-25T00:34:01.318Z,1018.28
2018-12-25T00:35:01.334Z,1018.30
2018-12-25T00:36:01.352Z,1018.25
2018-12-25T00:37:01.368Z,1018.30
2018-12-25T00:38:01.379Z,1018.30
2018-12-25T00:39:01.397Z,1018.29
2018-12-25T00:40:01.410Z,1018.34
2018-12-25T00:41:01.465Z,1018.23
2018-12-25T00:42:01.466Z,1018.23
2018-12-25T00:43:01.473Z,1018.28
2018-12-25T00:44:01.487Z,1018.27
2018-12-25T00:45:01.492Z,1018.29
2018-12-25T00:46:01.516Z,1018.32
2018-12-25T00:47:01.657Z,1018.34
2018-12-25T00:48:01.558Z,1018.35
2018-12-25T00:49:01.559Z,1018.38
2018-12-25T00:50:01.577Z,1018.36
2018-12-25T00:51:01.589Z,1018.35
2018-12-25T00:52:01.614Z,1018.36
2018-12-25T00:53:01.618Z,1018.36
2018-12-25T00:54:01.635Z,1018.33
2018-12-25T00:55:01.650Z,1018.29
2018-12-25T00:56:01.669Z,1018.31
2018-12-25T00:57:01.682Z,1018.31
2018-12-25T00:58:01.703Z,1018.39
2018-12-25T00:59:01.732Z,1018.40
2018-12-25T01:00:01.727Z,1018.43
2018-12-25T01:01:01.778Z,1018.39
2018-12-25T01:02:02.295Z,1018.41
2018-12-25T01:03:01.789Z,1018.43
2018-12-25T01:04:01.813Z,1018.38
2018-12-25T01:05:01.815Z,1018.40
2018-12-25T01:06:01.837Z,1018.37
2018-12-25T01:07:01.856Z,1018.37
2018-12-25T01:08:01.864Z,1018.36
2018-12-25T01:09:01.879Z,1018.31
2018-12-25T01:10:01.889Z,1018.34
2018-12-25T01:11:01.916Z,1018.31
2018-12-25T01:12:01.920Z,1018.36
2018-12-25T01:13:01.935Z,1018.36
2018-12-25T01:14:01.956Z,1018.40
2018-12-25T01:15:01.967Z,1018.37
2018-12-25T01:16:01.982Z,1018.37
2018-12-25T01:17:02.002Z,1018.35
2018-12-25T01:18:02.132Z,1018.38
2018-12-25T01:19:02.035Z,1018.40
2018-12-25T01:20:02.040Z,1018.39
2018-12-25T01:21:02.058Z,1018.35
2018-12-25T01:22:02.074Z,1018.33
2018-12-25T01:23:02.104Z,1018.32
2018-12-25T01:24:02.128Z,1018.32
2018-12-25T01:25:02.127Z,1018.32
2018-12-25T01:26:02.135Z,1018.36
2018-12-25T01:27:02.165Z,1018.39
2018-12-25T01:28:02.165Z,1018.38
2018-12-25T01:29:02.185Z,1018.39
2018-12-25T01:30:02.198Z,1018.34
2018-12-25T01:31:02.217Z,1018.37
2018-12-25T01:32:02.227Z,1018.36
2018-12-25T01:33:02.241Z,1018.38
2018-12-25T01:34:02.262Z,1018.37
2018-12-25T01:35:02.275Z,1018.39
2018-12-25T01:36:02.351Z,1018.41
2018-12-25T01:37:02.312Z,1018.44
2018-12-25T01:38:02.329Z,1018.45
2018-12-25T01:39:02.335Z,1018.51
2018-12-25T01:40:02.360Z,1018.51
2018-12-25T01:41:02.371Z,1018.54
2018-12-25T01:42:02.385Z,1018.52
2018-12-25T01:43:02.404Z,1018.53
2018-12-25T01:44:02.419Z,1018.55
2018-12-25T01:45:02.430Z,1018.53
2018-12-25T01:46:02.444Z,1018.57
2018-12-25T01:47:02.471Z,1018.54
2018-12-25T01:48:02.476Z,1018.54
2018-12-25T01:49:02.499Z,1018.55
2018-12-25T01:50:02.611Z,1018.54
2018-12-25T01:51:02.523Z,1018.53
2018-12-25T01:52:02.541Z,1018.54
2018-12-25T01:53:02.555Z,1018.53
2018-12-25T01:54:02.566Z,1018.53
2018-12-25T01:55:02.587Z,1018.44
2018-12-25T01:56:02.598Z,1018.46
2018-12-25T01:57:02.610Z,1018.51
2018-12-25T01:58:02.642Z,1018.51
2018-12-25T01:59:02.647Z,1018.51
2018-12-25T02:00:02.669Z,1018.54
2018-12-25T02:01:02.677Z,1018.55
2018-12-25T02:02:02.688Z,1018.53
2018-12-25T02:03:02.708Z,1018.57
2018-12-25T02:04:02.722Z,1018.55
2018-12-25T02:05:02.744Z,1018.57
2018-12-25T02:06:02.763Z,1018.56
2018-12-25T02:07:02.770Z,1018.53
2018-12-25T02:08:02.783Z,1018.52
2018-12-25T02:09:02.801Z,1018.52
2018-12-25T02:10:02.819Z,1018.52
2018-12-25T02:11:02.851Z,1018.49
2018-12-25T02:12:02.847Z,1018.53
2018-12-25T02:13:02.862Z,1018.48
2018-12-25T02:14:02.876Z,1018.47
2018-12-25T02:15:02.918Z,1018.47
2018-12-25T02:16:02.911Z,1018.49
2018-12-25T02:17:02.927Z,1018.47
2018-12-25T02:18:02.941Z,1018.45
2018-12-25T02:19:02.959Z,1018.46
2018-12-25T02:20:02.972Z,1018.48
2018-12-25T02:21:02.987Z,1018.49
2018-12-25T02:22:03.002Z,1018.50
2018-12-25T02:23:03.021Z,1018.50
2018-12-25T02:24:03.032Z,1018.48
2018-12-25T02:25:03.049Z,1018.46
2018-12-25T02:26:03.067Z,1018.46
2018-12-25T02:27:03.084Z,1018.42
2018-12-25T02:28:03.096Z,1018.42
2018-12-25T02:29:03.113Z,1018.39
2018-12-25T02:30:03.154Z,1018.41
2018-12-25T02:31:03.161Z,1018.40
2018-12-25T02:32:03.168Z,1018.41
2018-12-25T02:33:03.191Z,1018.36
2018-12-25T02:34:03.192Z,1018.39
2018-12-25T02:35:03.216Z,1018.34
2018-12-25T02:36:03.224Z,1018.37
2018-12-25T02:37:03.247Z,1018.40
2018-12-25T02:38:03.258Z,1018.36
2018-12-25T02:39:03.278Z,1018.39
2018-12-25T02:40:03.293Z,1018.32
2018-12-25T02:41:03.325Z,1018.35
2018-12-25T02:42:03.322Z,1018.30
2018-12-25T02:43:03.338Z,1018.37
2018-12-25T02:44:03.387Z,1018.34
2018-12-25T02:45:03.379Z,1018.32
2018-12-25T02:46:03.404Z,1018.30
2018-12-25T02:47:03.397Z,1018.22
2018-12-25T02:48:03.415Z,1018.24
2018-12-25T02:49:03.435Z,1018.26
2018-12-25T02:50:03.457Z,1018.21
2018-12-25T02:51:03.466Z,1018.18
2018-12-25T02:52:03.482Z,1018.21
2018-12-25T02:53:03.498Z,1018.23
2018-12-25T02:54:03.513Z,1018.22
2018-12-25T02:55:03.540Z,1018.22
2018-12-25T02:56:03.557Z,1018.21
2018-12-25T02:57:03.571Z,1018.21
2018-12-25T02:58:03.616Z,1018.21
2018-12-25T02:59:03.605Z,1018.21
2018-12-25T03:00:03.606Z,1018.18
2018-12-25T03:01:03.622Z,1018.19
2018-12-25T03:02:03.639Z,1018.18
2018-12-25T03:03:03.655Z,1018.24
2018-12-25T03:04:03.678Z,1018.19
2018-12-25T03:05:03.692Z,1018.16
2018-12-25T03:06:03.712Z,1018.19
2018-12-25T03:07:03.718Z,1018.16
2018-12-25T03:08:03.743Z,1018.16
2018-12-25T03:09:03.767Z,1018.06
2018-12-25T03:10:03.771Z,1018.04
2018-12-25T03:11:03.784Z,1018.07
2018-12-25T03:12:03.794Z,1018.00
2018-12-25T03:13:03.813Z,1018.06
2018-12-25T03:14:03.829Z,1018.06
2018-12-25T03:15:03.842Z,1018.04
2018-12-25T03:16:03.859Z,1018.01
2018-12-25T03:17:03.879Z,1018.03
2018-12-25T03:18:03.899Z,1017.99
2018-12-25T03:19:03.916Z,1017.95
2018-12-25T03:20:03.925Z,1017.94
2018-12-25T03:21:03.937Z,1017.90
2018-12-25T03:22:03.950Z,1017.90
2018-12-25T03:23:03.967Z,1017.92
2018-12-25T03:24:03.982Z,1017.96
2018-12-25T03:25:03.994Z,1017.97
2018-12-25T03:26:04.016Z,1017.97
2018-12-25T03:27:04.028Z,1017.95
2018-12-25T03:28:04.041Z,1017.96
2018-12-25T03:29:04.066Z,1018.00
2018-12-25T03:30:04.080Z,1017.98
2018-12-25T03:31:04.094Z,1018.00
2018-12-25T03:32:04.108Z,1017.96
2018-12-25T03:33:04.129Z,1017.98
2018-12-25T03:34:04.161Z,1018.01
2018-12-25T03:35:04.153Z,1018.06
2018-12-25T03:36:04.174Z,1018.11
2018-12-25T03:37:04.188Z,1018.11
2018-12-25T03:38:04.201Z,1018.06
2018-12-25T03:39:04.232Z,1018.09
2018-12-25T03:40:04.234Z,1018.04
2018-12-25T03:41:04.252Z,1018.03
2018-12-25T03:42:04.271Z,1018.03
2018-12-25T03:43:04.288Z,1017.99
2018-12-25T03:44:04.312Z,1017.97
2018-12-25T03:45:04.321Z,1018.03
2018-12-25T03:46:04.324Z,1017.96
2018-12-25T03:47:04.346Z,1017.95
2018-12-25T03:48:04.373Z,1017.98
2018-12-25T03:49:04.373Z,1017.93
2018-12-25T03:50:10.568Z,1017.96
2018-12-25T03:51:04.413Z,1017.94
2018-12-25T03:52:04.422Z,1017.95
2018-12-25T03:53:04.450Z,1017.91
2018-12-25T03:54:04.460Z,1017.87
2018-12-25T03:55:04.491Z,1017.85
2018-12-25T03:56:04.494Z,1017.84
2018-12-25T03:57:04.510Z,1017.81
2018-12-25T03:58:04.524Z,1017.83
2018-12-25T03:59:04.548Z,1017.84
2018-12-25T04:00:04.554Z,1017.84
2018-12-25T04:01:04.572Z,1017.82
2018-12-25T04:02:04.603Z,1017.83
2018-12-25T04:03:04.615Z,1017.85
2018-12-25T04:04:04.642Z,1017.87
2018-12-25T04:05:04.637Z,1017.89
2018-12-25T04:06:04.645Z,1017.89
2018-12-25T04:07:04.673Z,1017.91
2018-12-25T04:08:04.697Z,1017.93
2018-12-25T04:09:04.693Z,1017.90
2018-12-25T04:10:04.713Z,1017.91
2018-12-25T04:11:04.725Z,1017.93
2018-12-25T04:12:04.762Z,1017.89
2018-12-25T04:13:04.778Z,1017.88
2018-12-25T04:14:04.905Z,1017.94
2018-12-25T04:15:04.784Z,1017.94
2018-12-25T04:16:04.798Z,1017.93
2018-12-25T04:17:04.847Z,1017.88
2018-12-25T04:18:04.831Z,1017.87
2018-12-25T04:19:04.859Z,1017.82
2018-12-25T04:20:04.878Z,1017.83
2018-12-25T04:21:04.898Z,1017.79
2018-12-25T04:22:04.895Z,1017.84
2018-12-25T04:23:04.911Z,1017.84
2018-12-25T04:24:04.929Z,1017.90
2018-12-25T04:25:04.944Z,1017.89
2018-12-25T04:26:04.956Z,1017.93
2018-12-25T04:27:04.978Z,1017.92
2018-12-25T04:28:04.988Z,1017.90
2018-12-25T04:29:05.007Z,1017.85
2018-12-25T04:30:05.025Z,1017.84
2018-12-25T04:31:05.036Z,1017.84
2018-12-25T04:32:05.060Z,1017.78
2018-12-25T04:33:05.069Z,1017.84
2018-12-25T04:34:05.099Z,1017.86
2018-12-25T04:35:05.104Z,1017.89
2018-12-25T04:36:05.117Z,1017.90
2018-12-25T04:37:05.129Z,1017.85
2018-12-25T04:38:05.177Z,1017.80
2018-12-25T04:39:05.178Z,1017.79
2018-12-25T04:40:05.191Z,1017.76
2018-12-25T04:41:05.217Z,1017.77
2018-12-25T04:42:05.258Z,1017.81
2018-12-25T04:43:05.227Z,1017.83
2018-12-25T04:44:05.246Z,1017.87
2018-12-25T04:45:05.261Z,1017.87
2018-12-25T04:46:05.273Z,1017.88
2018-12-25T04:47:05.287Z,1017.81
2018-12-25T04:48:05.304Z,1017.81
2018-12-25T04:49:05.326Z,1017.78
2018-12-25T04:50:05.333Z,1017.78
2018-12-25T04:51:05.349Z,1017.77
2018-12-25T04:52:05.377Z,1017.78
2018-12-25T04:53:05.377Z,1017.80
2018-12-25T04:54:05.395Z,1017.82
2018-12-25T04:55:05.423Z,1017.84
2018-12-25T04:56:05.570Z,1017.82
2018-12-25T04:57:05.446Z,1017.84
2018-12-25T04:58:05.477Z,1017.83
2018-12-25T04:59:05.471Z,1017.88
2018-12-25T05:00:05.495Z,1017.89
2018-12-25T05:01:05.549Z,1017.93
2018-12-25T05:02:05.528Z,1017.93
2018-12-25T05:03:05.538Z,1017.95
2018-12-25T05:04:05.579Z,1017.97
2018-12-25T05:05:05.571Z,1018.00
2018-12-25T05:06:05.587Z,1018.01
2018-12-25T05:07:05.602Z,1018.08
2018-12-25T05:08:05.636Z,1018.07
2018-12-25T05:09:05.654Z,1018.07
2018-12-25T05:10:05.660Z,1018.04
2018-12-25T05:11:05.669Z,1018.03
2018-12-25T05:12:05.679Z,1018.04
2018-12-25T05:13:05.694Z,1018.05
2018-12-25T05:14:05.713Z,1018.01
2018-12-25T05:15:05.746Z,1018.05
2018-12-25T05:16:05.746Z,1018.01
2018-12-25T05:17:05.757Z,1017.99
2018-12-25T05:18:05.773Z,1018.00
2018-12-25T05:19:05.789Z,1017.96
2018-12-25T05:20:05.809Z,1017.98
2018-12-25T05:21:05.821Z,1018.04
2018-12-25T05:22:05.846Z,1018.04
2018-12-25T05:23:05.868Z,1018.00
2018-12-25T05:24:05.867Z,1017.99
2018-12-25T05:25:05.894Z,1018.02
2018-12-25T05:26:05.903Z,1018.04
2018-12-25T05:27:05.922Z,1018.02
2018-12-25T05:28:05.936Z,1018.01
2018-12-25T05:29:05.959Z,1017.99
2018-12-25T05:30:05.967Z,1017.99
2018-12-25T05:31:05.984Z,1018.01
2018-12-25T05:32:06.001Z,1018.00
2018-12-25T05:33:06.022Z,1017.98
2018-12-25T05:34:06.034Z,1017.98
2018-12-25T05:35:06.045Z,1017.96
2018-12-25T05:36:06.068Z,1017.96
2018-12-25T05:37:06.074Z,1017.96
2018-12-25T05:38:06.094Z,1017.92
2018-12-25T05:39:06.118Z,1017.92
2018-12-25T05:40:06.140Z,1017.90
2018-12-25T05:41:06.154Z,1017.78
2018-12-25T05:42:06.157Z,1017.75
2018-12-25T05:43:06.186Z,1017.72
2018-12-25T05:44:06.190Z,1017.73
2018-12-25T05:45:06.219Z,1017.82
2018-12-25T05:46:06.221Z,1017.84
2018-12-25T05:47:06.243Z,1017.86
2018-12-25T05:48:06.259Z,1017.87
2018-12-25T05:49:06.267Z,1017.91
2018-12-25T05:50:06.296Z,1017.91
2018-12-25T05:51:06.317Z,1017.95
2018-12-25T05:52:06.313Z,1017.96
2018-12-25T05:53:06.330Z,1018.00
2018-12-25T05:54:06.349Z,1018.03
2018-12-25T05:55:06.371Z,1018.07
2018-12-25T05:56:06.382Z,1018.08
2018-12-25T05:57:06.399Z,1018.11
2018-12-25T05:58:06.411Z,1018.08
2018-12-25T05:59:06.434Z,1018.08
2018-12-25T06:00:06.443Z,1018.12
2018-12-25T06:01:06.465Z,1018.13
2018-12-25T06:02:06.480Z,1018.10
2018-12-25T06:03:06.491Z,1018.15
2018-12-25T06:04:06.516Z,1018.18
2018-12-25T06:05:06.523Z,1018.15
2018-12-25T06:06:06.542Z,1018.07
2018-12-25T06:07:06.551Z,1018.02
2018-12-25T06:08:06.568Z,1017.97
2018-12-25T06:09:06.588Z,1017.89
2018-12-25T06:10:06.601Z,1017.81
2018-12-25T06:11:06.635Z,1017.82
2018-12-25T06:12:06.633Z,1017.82
2018-12-25T06:13:06.651Z,1017.81
2018-12-25T06:14:06.667Z,1017.80
2018-12-25T06:15:06.682Z,1017.79
2018-12-25T06:16:06.697Z,1017.76
2018-12-25T06:17:06.716Z,1017.82
2018-12-25T06:18:06.738Z,1017.83
2018-12-25T06:19:06.745Z,1017.84
2018-12-25T06:20:06.764Z,1017.81
2018-12-25T06:21:06.778Z,1017.78
2018-12-25T06:22:06.798Z,1017.82
2018-12-25T06:23:06.817Z,1017.83
2018-12-25T06:24:06.841Z,1017.87
2018-12-25T06:25:06.846Z,1017.86
2018-12-25T06:26:06.859Z,1017.84
2018-12-25T06:27:06.877Z,1017.81
2018-12-25T06:28:06.897Z,1017.85
2018-12-25T06:29:06.909Z,1017.89
2018-12-25T06:30:06.938Z,1017.87
2018-12-25T06:31:06.938Z,1017.86
2018-12-25T06:32:06.952Z,1017.86
2018-12-25T06:33:07.004Z,1017.83
2018-12-25T06:34:07.007Z,1017.84
2018-12-25T06:35:07.000Z,1017.85
2018-12-25T06:36:07.026Z,1017.82
2018-12-25T06:37:07.035Z,1017.83
2018-12-25T06:38:07.053Z,1017.79
2018-12-25T06:39:07.125Z,1017.78
2018-12-25T06:40:07.091Z,1017.78
2018-12-25T06:41:07.099Z,1017.74
2018-12-25T06:42:07.144Z,1017.73
2018-12-25T06:43:07.129Z,1017.72
2018-12-25T06:44:07.159Z,1017.71
2018-12-25T06:45:07.165Z,1017.73
2018-12-25T06:46:07.183Z,1017.78
2018-12-25T06:47:07.206Z,1017.75
2018-12-25T06:48:07.206Z,1017.74
2018-12-25T06:49:07.233Z,1017.76
2018-12-25T06:50:07.238Z,1017.78
2018-12-25T06:51:07.262Z,1017.76
2018-12-25T06:52:07.275Z,1017.76
2018-12-25T06:53:07.288Z,1017.77
2018-12-25T06:54:07.316Z,1017.77
2018-12-25T06:55:07.325Z,1017.70
2018-12-25T06:56:07.340Z,1017.72
2018-12-25T06:57:07.354Z,1017.67
2018-12-25T06:58:07.369Z,1017.64
2018-12-25T06:59:07.386Z,1017.70
2018-12-25T07:00:07.396Z,1017.68
2018-12-25T07:01:07.411Z,1017.65
2018-12-25T07:02:07.427Z,1017.68
2018-12-25T07:03:07.456Z,1017.69
2018-12-25T07:04:07.473Z,1017.69
2018-12-25T07:05:07.477Z,1017.71
2018-12-25T07:06:07.497Z,1017.70
2018-12-25T07:07:07.512Z,1017.72
2018-12-25T07:08:07.523Z,1017.71
2018-12-25T07:09:07.539Z,1017.69
2018-12-25T07:10:07.560Z,1017.72
2018-12-25T07:11:07.583Z,1017.71
2018-12-25T07:12:07.584Z,1017.73
2018-12-25T07:13:07.751Z,1017.77
2018-12-25T07:14:07.623Z,1017.78
2018-12-25T07:15:07.641Z,1017.81
2018-12-25T07:16:07.654Z,1017.79
2018-12-25T07:17:07.665Z,1017.75
2018-12-25T07:18:07.682Z,1017.72
2018-12-25T07:19:07.698Z,1017.70
2018-12-25T07:20:07.739Z,1017.71
2018-12-25T07:21:12.112Z,1017.70
2018-12-25T07:22:07.753Z,1017.66
2018-12-25T07:23:07.778Z,1017.65
2018-12-25T07:24:07.788Z,1017.65
2018-12-25T07:25:07.799Z,1017.66
2018-12-25T07:26:07.822Z,1017.62
2018-12-25T07:27:07.895Z,1017.64
2018-12-25T07:28:07.847Z,1017.66
2018-12-25T07:29:07.876Z,1017.63
2018-12-25T07:30:07.890Z,1017.65
2018-12-25T07:31:07.994Z,1017.59
2018-12-25T07:32:07.914Z,1017.65
2018-12-25T07:33:07.934Z,1017.64
2018-12-25T07:34:07.944Z,1017.62
2018-12-25T07:35:07.965Z,1017.67
2018-12-25T07:36:09.522Z,1017.67
2018-12-25T07:37:07.994Z,1017.66
2018-12-25T07:38:08.006Z,1017.67
2018-12-25T07:39:08.026Z,1017.72
2018-12-25T07:40:08.039Z,1017.72
2018-12-25T07:41:08.060Z,1017.68
2018-12-25T07:42:08.076Z,1017.68
2018-12-25T07:43:08.082Z,1017.66
2018-12-25T07:44:08.118Z,1017.66
2018-12-25T07:45:08.121Z,1017.67
2018-12-25T07:46:08.134Z,1017.63
2018-12-25T07:47:08.152Z,1017.64
2018-12-25T07:48:08.167Z,1017.66
2018-12-25T07:49:08.179Z,1017.67
2018-12-25T07:50:08.202Z,1017.66
2018-12-25T07:51:08.223Z,1017.66
2018-12-25T07:52:08.267Z,1017.65
2018-12-25T07:53:08.266Z,1017.63
2018-12-25T07:54:08.265Z,1017.65
2018-12-25T07:55:08.318Z,1017.60
2018-12-25T07:56:08.296Z,1017.57
2018-12-25T07:57:08.310Z,1017.57
2018-12-25T07:58:08.332Z,1017.51
2018-12-25T07:59:08.345Z,1017.53
2018-12-25T08:00:08.356Z,1017.52
2018-12-25T08:01:08.382Z,1017.46
2018-12-25T08:02:08.403Z,1017.49
2018-12-25T08:03:08.407Z,1017.44
2018-12-25T08:04:08.423Z,1017.44
2018-12-25T08:05:08.446Z,1017.43
2018-12-25T08:06:08.460Z,1017.38
2018-12-25T08:07:08.471Z,1017.39
2018-12-25T08:08:08.493Z,1017.42
2018-12-25T08:09:08.508Z,1017.41
2018-12-25T08:10:08.526Z,1017.43
2018-12-25T08:11:08.543Z,1017.48
2018-12-25T08:12:08.568Z,1017.50
2018-12-25T08:13:08.570Z,1017.47
2018-12-25T08:14:08.616Z,1017.45
2018-12-25T08:15:08.688Z,1017.42
2018-12-25T08:16:08.644Z,1017.41
2018-12-25T08:17:08.637Z,1017.43
2018-12-25T08:18:08.656Z,1017.44
2018-12-25T08:19:08.735Z,1017.48
2018-12-25T08:20:08.691Z,1017.52
2018-12-25T08:21:08.718Z,1017.52
2018-12-25T08:22:08.789Z,1017.52
2018-12-25T08:23:08.748Z,1017.51
2018-12-25T08:24:08.810Z,1017.54
2018-12-25T08:25:08.774Z,1017.56
2018-12-25T08:26:08.838Z,1017.56
2018-12-25T08:27:08.839Z,1017.57
2018-12-25T08:28:08.873Z,1017.60
2018-12-25T08:29:08.845Z,1017.59
2018-12-25T08:30:08.858Z,1017.65
2018-12-25T08:31:08.913Z,1017.70
2018-12-25T08:32:08.880Z,1017.73
2018-12-25T08:33:08.988Z,1017.73
2018-12-25T08:34:08.915Z,1017.76
2018-12-25T08:35:08.941Z,1017.76
2018-12-25T08:36:08.973Z,1017.76
2018-12-25T08:37:09.038Z,1017.76
2018-12-25T08:38:08.987Z,1017.78
2018-12-25T08:39:09.008Z,1017.77
2018-12-25T08:40:09.016Z,1017.78
2018-12-25T08:41:09.026Z,1017.72
2018-12-25T08:42:09.065Z,1017.70
2018-12-25T08:43:09.065Z,1017.70
2018-12-25T08:44:09.076Z,1017.72
2018-12-25T08:45:09.094Z,1017.71
2018-12-25T08:46:09.121Z,1017.69
2018-12-25T08:47:09.132Z,1017.68
2018-12-25T08:48:09.139Z,1017.73
2018-12-25T08:49:09.165Z,1017.69
2018-12-25T08:50:09.177Z,1017.74
2018-12-25T08:51:09.190Z,1017.78
2018-12-25T08:52:09.218Z,1017.82
2018-12-25T08:53:09.235Z,1017.84
2018-12-25T08:54:09.303Z,1017.86
2018-12-25T08:55:09.259Z,1017.86
2018-12-25T08:56:09.270Z,1017.87
2018-12-25T08:57:09.298Z,1017.88
2018-12-25T08:58:09.311Z,1017.90
2018-12-25T08:59:09.321Z,1017.90
2018-12-25T09:00:09.355Z,1017.96
2018-12-25T09:01:09.390Z,1017.94
2018-12-25T09:02:09.389Z,1018.00
2018-12-25T09:03:09.398Z,1017.98
2018-12-25T09:04:09.450Z,1017.95
2018-12-25T09:05:09.430Z,1017.96
2018-12-25T09:06:09.476Z,1017.97
2018-12-25T09:07:09.467Z,1018.00
2018-12-25T09:08:09.485Z,1018.01
2018-12-25T09:09:09.501Z,1017.96
2018-12-25T09:10:09.530Z,1017.93
2018-12-25T09:11:09.525Z,1017.94
2018-12-25T09:12:09.535Z,1017.96
2018-12-25T09:13:09.564Z,1017.95
2018-12-25T09:14:09.573Z,1017.91
2018-12-25T09:15:09.604Z,1017.91
2018-12-25T09:16:09.611Z,1017.93
2018-12-25T09:17:09.617Z,1017.92
2018-12-25T09:18:09.646Z,1017.94
2018-12-25T09:19:09.656Z,1017.88
2018-12-25T09:20:09.676Z,1017.89
2018-12-25T09:21:09.682Z,1017.93
2018-12-25T09:22:09.701Z,1017.93
2018-12-25T09:23:09.722Z,1017.92
2018-12-25T09:24:09.731Z,1017.92
2018-12-25T09:25:10.730Z,1017.95
2018-12-25T09:26:09.771Z,1017.89
2018-12-25T09:27:09.796Z,1017.93
2018-12-25T09:28:09.805Z,1017.90
2018-12-25T09:29:09.828Z,1017.92
2018-12-25T09:30:09.842Z,1017.95
2018-12-25T09:31:09.856Z,1017.93
2018-12-25T09:32:09.869Z,1017.93
2018-12-25T09:33:09.883Z,1017.96
2018-12-25T09:34:09.904Z,1017.98
2018-12-25T09:35:09.928Z,1017.96
2018-12-25T09:36:09.968Z,1017.98
2018-12-25T09:37:09.950Z,1018.06
2018-12-25T09:38:09.978Z,1018.03
2018-12-25T09:39:09.998Z,1018.05
2018-12-25T09:40:10.003Z,1018.04
2018-12-25T09:41:10.018Z,1018.05
2018-12-25T09:42:10.039Z,1018.08
2018-12-25T09:43:10.089Z,1018.13
2018-12-25T09:44:10.071Z,1018.10
2018-12-25T09:45:10.101Z,1018.11
2018-12-25T09:46:10.118Z,1018.12
2018-12-25T09:47:10.153Z,1018.10
2018-12-25T09:48:13.402Z,1018.13
2018-12-25T09:49:10.159Z,1018.11
2018-12-25T09:50:10.165Z,1018.05
2018-12-25T09:51:10.189Z,1018.08
2018-12-25T09:52:10.200Z,1018.03
2018-12-25T09:53:10.221Z,1018.08
2018-12-25T09:54:10.240Z,1018.14
2018-12-25T09:55:10.271Z,1018.11
2018-12-25T09:56:10.274Z,1018.10
2018-12-25T09:57:10.293Z,1018.15
2018-12-25T09:58:10.314Z,1018.12
2018-12-25T09:59:10.319Z,1018.09
2018-12-25T10:00:10.351Z,1018.13
2018-12-25T10:01:10.353Z,1018.15
2018-12-25T10:02:10.372Z,1018.08
2018-12-25T10:03:10.386Z,1018.02
2018-12-25T10:04:10.419Z,1017.99
2018-12-25T10:05:10.443Z,1018.02
2018-12-25T10:06:10.439Z,1017.95
2018-12-25T10:07:10.455Z,1017.94
2018-12-25T10:08:10.491Z,1017.91
2018-12-25T10:09:10.527Z,1017.87
2018-12-25T10:10:10.509Z,1017.92
2018-12-25T10:11:10.517Z,1017.89
2018-12-25T10:12:10.546Z,1017.90
2018-12-25T10:13:10.567Z,1017.92
2018-12-25T10:14:10.571Z,1017.94
2018-12-25T10:15:10.623Z,1017.95
2018-12-25T10:16:10.607Z,1017.94
2018-12-25T10:17:10.635Z,1017.94
2018-12-25T10:18:10.646Z,1017.93
2018-12-25T10:19:10.668Z,1017.97
2018-12-25T10:20:10.678Z,1017.99
2018-12-25T10:21:10.713Z,1018.02
2018-12-25T10:22:10.706Z,1018.04
2018-12-25T10:23:10.726Z,1018.07
2018-12-25T10:24:10.745Z,1018.06
2018-12-25T10:25:10.767Z,1018.04
2018-12-25T10:26:10.786Z,1018.04
2018-12-25T10:27:10.789Z,1017.99
2018-12-25T10:28:10.826Z,1017.99
2018-12-25T10:29:10.831Z,1017.97
2018-12-25T10:30:10.857Z,1017.95
2018-12-25T10:31:10.873Z,1017.97
2018-12-25T10:32:11.014Z,1018.02
2018-12-25T10:33:10.917Z,1018.04
2018-12-25T10:34:10.909Z,1018.09
2018-12-25T10:35:10.931Z,1018.09
2018-12-25T10:36:10.962Z,1018.06
2018-12-25T10:37:10.964Z,1018.05
2018-12-25T10:38:10.988Z,1018.09
2018-12-25T10:39:11.004Z,1018.07
2018-12-25T10:40:11.009Z,1018.09
2018-12-25T10:41:11.034Z,1018.06
2018-12-25T10:42:11.063Z,1018.07
2018-12-25T10:43:11.079Z,1018.06
2018-12-25T10:44:11.089Z,1018.07
2018-12-25T10:45:11.141Z,1018.07
2018-12-25T10:46:11.119Z,1018.07
2018-12-25T10:47:11.137Z,1018.04
2018-12-25T10:48:11.152Z,1018.05
2018-12-25T10:49:11.172Z,1018.08
2018-12-25T10:50:11.290Z,1018.07
2018-12-25T10:51:11.199Z,1018.05
2018-12-25T10:52:11.795Z,1018.07
2018-12-25T10:53:11.234Z,1018.05
2018-12-25T10:54:11.254Z,1018.00
2018-12-25T10:55:11.270Z,1018.00
2018-12-25T10:56:11.286Z,1017.96
2018-12-25T10:57:11.355Z,1017.97
2018-12-25T10:58:11.333Z,1017.98
2018-12-25T10:59:11.350Z,1017.99
2018-12-25T11:00:11.359Z,1017.97
2018-12-25T11:01:11.378Z,1018.00
2018-12-25T11:02:11.396Z,1017.97
2018-12-25T11:03:13.093Z,1017.96
2018-12-25T11:04:11.453Z,1017.98
2018-12-25T11:05:11.461Z,1018.00
2018-12-25T11:06:11.465Z,1017.99
2018-12-25T11:07:11.497Z,1018.00
2018-12-25T11:08:11.498Z,1017.99
2018-12-25T11:09:11.521Z,1017.96
2018-12-25T11:10:11.537Z,1017.97
2018-12-25T11:11:11.554Z,1017.99
2018-12-25T11:12:11.564Z,1017.97
2018-12-25T11:13:11.591Z,1017.94
2018-12-25T11:14:11.601Z,1017.92
2018-12-25T11:15:11.630Z,1017.89
2018-12-25T11:16:11.629Z,1017.89
2018-12-25T11:17:11.649Z,1017.88
2018-12-25T11:18:11.665Z,1017.85
2018-12-25T11:19:11.688Z,1017.85
2018-12-25T11:20:11.881Z,1017.85
2018-12-25T11:21:11.775Z,1017.82
2018-12-25T11:22:19.689Z,1017.82
2018-12-25T11:23:11.753Z,1017.77
2018-12-25T11:24:11.768Z,1017.71
2018-12-25T11:25:11.800Z,1017.71
2018-12-25T11:26:11.807Z,1017.68
2018-12-25T11:27:11.825Z,1017.68
2018-12-25T11:28:11.881Z,1017.61
2018-12-25T11:29:11.913Z,1017.62
2018-12-25T11:30:11.914Z,1017.58
2018-12-25T11:31:11.915Z,1017.58
2018-12-25T11:32:11.924Z,1017.57
2018-12-25T11:33:11.956Z,1017.57
2018-12-25T11:34:11.945Z,1017.58
2018-12-25T11:35:11.961Z,1017.59
2018-12-25T11:36:11.975Z,1017.59
2018-12-25T11:37:11.996Z,1017.57
2018-12-25T11:38:12.018Z,1017.55
2018-12-25T11:39:12.029Z,1017.48
2018-12-25T11:40:12.044Z,1017.46
2018-12-25T11:41:12.092Z,1017.41
2018-12-25T11:42:12.105Z,1017.42
2018-12-25T11:43:12.096Z,1017.48
2018-12-25T11:44:12.132Z,1017.49
2018-12-25T11:45:12.138Z,1017.44
2018-12-25T11:46:12.194Z,1017.49
2018-12-25T11:47:12.205Z,1017.53
2018-12-25T11:48:12.194Z,1017.54
2018-12-25T11:49:12.215Z,1017.45
2018-12-25T11:50:12.220Z,1017.44
2018-12-25T11:51:12.246Z,1017.52
2018-12-25T11:52:12.259Z,1017.54
2018-12-25T11:53:12.287Z,1017.52
2018-12-25T11:54:12.296Z,1017.48
2018-12-25T11:55:12.309Z,1017.50
2018-12-25T11:56:12.325Z,1017.48
2018-12-25T11:57:12.390Z,1017.50
2018-12-25T11:58:12.372Z,1017.47
2018-12-25T11:59:12.378Z,1017.49
2018-12-25T12:00:12.396Z,1017.50
2018-12-25T12:01:12.416Z,1017.49
2018-12-25T12:02:16.997Z,1017.52
2018-12-25T12:03:12.444Z,1017.52
2018-12-25T12:04:12.463Z,1017.53
2018-12-25T12:05:12.480Z,1017.50